Time;durP1;ratioP1;P1;durP2;ratioP2;P2;SDS_P1;SDS_P2;PMS_P1;PMS_P2;Temp;Humidity;BMP_temperature;BMP_pressure;BME280_temperature;BME280_humidity;BME280_pressure;Samples;Min_cycle;Max_cycle;Signal;HPM_P1;HPM_P2
2023/12/15 00:01:09;;;;;;;2.90;1.20;;;;;;;;;;5031595;28;20307;-73
2023/12/15 00:03:34;;;;;;;1.33;1.20;;;;;;;;;;5016963;28;20214;-74
2023/12/15 00:05:59;;;;;;;1.30;1.20;;;;;;;;;;5026881;28;20230;-72
2023/12/15 00:08:25;;;;;;;4.50;1.20;;;;;;;;;;5032444;28;20233;-74
2023/12/15 00:10:50;;;;;;;1.30;1.07;;;;;;;;;;5028281;28;20222;-73
2023/12/15 00:13:16;;;;;;;2.17;1.30;;;;;;;;;;5019230;28;20229;-73
2023/12/15 00:15:41;;;;;;;1.40;1.30;;;;;;;;;;5014502;28;20218;-74
2023/12/15 00:18:07;;;;;;;1.60;1.20;;;;;;;;;;5038220;28;20225;-73
2023/12/15 00:20:32;;;;;;;1.30;1.20;;;;;;;;;;5016267;28;20215;-73
2023/12/15 00:22:57;;;;;;;2.03;1.30;;;;;;;;;;5033216;28;20224;-73
2023/12/15 00:25:23;;;;;;;1.70;1.10;;;;;;;;;;5028619;28;20221;-74
2023/12/15 00:27:48;;;;;;;1.10;1.00;;;;;;;;;;5032518;28;20260;-73
2023/12/15 00:30:14;;;;;;;1.10;1.00;;;;;;;;;;5030339;28;20309;-74
2023/12/15 00:32:39;;;;;;;1.10;1.00;;;;;;;;;;5017432;28;20598;-74
2023/12/15 00:35:05;;;;;;;1.30;1.20;;;;;;;;;;5029780;28;20224;-74
2023/12/15 00:37:30;;;;;;;1.83;1.03;;;;;;;;;;5023885;28;20312;-74
2023/12/15 00:39:55;;;;;;;1.33;1.10;;;;;;;;;;5032895;28;20222;-73
2023/12/15 00:42:21;;;;;;;1.20;1.10;;;;;;;;;;5027796;28;20229;-73
2023/12/15 00:44:46;;;;;;;1.10;1.10;;;;;;;;;;5035223;28;20309;-73
2023/12/15 00:47:11;;;;;;;1.47;1.30;;;;;;;;;;5028392;28;20237;-72
2023/12/15 00:49:37;;;;;;;1.10;1.00;;;;;;;;;;5021991;28;20718;-74
2023/12/15 00:52:02;;;;;;;1.33;1.20;;;;;;;;;;5016585;28;20722;-70
2023/12/15 00:54:27;;;;;;;1.50;1.20;;;;;;;;;;5028944;28;20228;-70
2023/12/15 00:56:53;;;;;;;1.20;1.10;;;;;;;;;;5031999;28;20248;-71
2023/12/15 00:59:18;;;;;;;1.43;1.10;;;;;;;;;;5031759;28;20616;-70
2023/12/15 01:01:43;;;;;;;1.20;1.10;;;;;;;;;;5040507;28;20222;-70
2023/12/15 01:04:09;;;;;;;1.30;1.20;;;;;;;;;;5029834;28;20229;-70
2023/12/15 01:06:34;;;;;;;1.40;1.10;;;;;;;;;;5028793;28;20222;-70
2023/12/15 01:08:59;;;;;;;5.13;1.10;;;;;;;;;;5018034;28;20241;-70
2023/12/15 01:11:25;;;;;;;1.87;1.30;;;;;;;;;;5032405;28;20363;-71
2023/12/15 01:13:50;;;;;;;1.10;1.00;;;;;;;;;;5029666;28;20352;-70
2023/12/15 01:16:15;;;;;;;1.20;1.10;;;;;;;;;;5016307;28;20737;-70
2023/12/15 01:18:41;;;;;;;1.20;1.10;;;;;;;;;;5028433;28;20228;-69
2023/12/15 01:21:06;;;;;;;1.97;1.17;;;;;;;;;;5030010;28;20236;-70
2023/12/15 01:23:32;;;;;;;1.20;1.10;;;;;;;;;;5025090;28;20221;-69
2023/12/15 01:25:58;;;;;;;2.70;1.40;;;;;;;;;;5015510;28;20225;-71
2023/12/15 01:28:23;;;;;;;1.87;1.50;;;;;;;;;;5028801;28;20242;-69
2023/12/15 01:30:48;;;;;;;2.07;1.47;;;;;;;;;;5033268;28;21260;-70
2023/12/15 01:33:14;;;;;;;1.77;1.30;;;;;;;;;;5029602;28;20272;-69
2023/12/15 01:35:39;;;;;;;1.97;1.40;;;;;;;;;;5031441;28;20218;-70
2023/12/15 01:38:04;;;;;;;2.03;1.30;;;;;;;;;;5031814;28;20263;-70
2023/12/15 01:40:30;;;;;;;1.60;1.47;;;;;;;;;;5017850;28;20218;-70
2023/12/15 01:43:00;;;;;;;1.70;1.40;;;;;;;;;;5022760;28;20229;-71
2023/12/15 01:45:25;;;;;;;1.50;1.40;;;;;;;;;;5027747;28;20217;-70
2023/12/15 01:47:50;;;;;;;1.83;1.60;;;;;;;;;;5029600;28;20238;-71
2023/12/15 01:50:16;;;;;;;1.80;1.60;;;;;;;;;;5017391;28;20230;-70
2023/12/15 01:52:41;;;;;;;1.60;1.50;;;;;;;;;;5032691;28;20220;-70
2023/12/15 01:55:06;;;;;;;3.73;2.00;;;;;;;;;;5021744;28;20219;-70
2023/12/15 01:57:32;;;;;;;2.57;2.03;;;;;;;;;;5027385;28;20709;-69
2023/12/15 01:59:57;;;;;;;2.70;2.20;;;;;;;;;;5030010;28;20225;-70
2023/12/15 02:02:22;;;;;;;3.77;2.50;;;;;;;;;;5029993;28;20226;-70
2023/12/15 02:04:48;;;;;;;3.50;2.70;;;;;;;;;;5028770;28;20237;-69
2023/12/15 02:07:13;;;;;;;2.60;2.00;;;;;;;;;;5015994;28;20229;-69
2023/12/15 02:09:39;;;;;;;2.20;1.70;;;;;;;;;;5030587;28;20689;-69
2023/12/15 02:12:04;;;;;;;1.90;1.60;;;;;;;;;;5029269;28;20233;-70
2023/12/15 02:14:30;;;;;;;1.90;1.57;;;;;;;;;;5014648;28;20222;-69
2023/12/15 02:16:55;;;;;;;2.07;1.70;;;;;;;;;;5029803;28;20310;-70
2023/12/15 02:19:20;;;;;;;1.50;1.40;;;;;;;;;;5034527;28;20630;-69
2023/12/15 02:21:46;;;;;;;1.93;1.50;;;;;;;;;;5028415;28;20218;-70
2023/12/15 02:24:11;;;;;;;1.73;1.40;;;;;;;;;;5028008;28;22470;-69
2023/12/15 02:26:36;;;;;;;1.60;1.50;;;;;;;;;;5031702;28;20313;-70
2023/12/15 02:29:01;;;;;;;2.23;1.60;;;;;;;;;;5029555;28;20240;-70
2023/12/15 02:31:27;;;;;;;2.33;1.53;;;;;;;;;;5030809;28;20772;-70
2023/12/15 02:33:53;;;;;;;1.70;1.47;;;;;;;;;;5030209;28;20731;-71
2023/12/15 02:36:22;;;;;;;1.60;1.50;;;;;;;;;;5028241;28;20795;-70
2023/12/15 02:38:47;;;;;;;1.50;1.40;;;;;;;;;;5018261;28;20349;-70
2023/12/15 02:41:12;;;;;;;1.50;1.40;;;;;;;;;;5019021;28;20308;-70
2023/12/15 02:43:38;;;;;;;1.67;1.57;;;;;;;;;;5034993;28;20309;-70
2023/12/15 02:46:03;;;;;;;2.07;1.70;;;;;;;;;;5032349;28;20224;-70
2023/12/15 02:48:29;;;;;;;1.80;1.60;;;;;;;;;;5037400;28;20255;-70
2023/12/15 02:50:54;;;;;;;1.97;1.77;;;;;;;;;;5031382;28;20713;-70
2023/12/15 02:53:19;;;;;;;3.17;1.80;;;;;;;;;;5030323;28;20225;-70
2023/12/15 02:55:45;;;;;;;2.97;2.30;;;;;;;;;;5029362;28;20226;-68
2023/12/15 02:58:10;;;;;;;3.03;2.73;;;;;;;;;;5016314;28;20271;-70
2023/12/15 03:00:35;;;;;;;4.40;3.50;;;;;;;;;;5031886;28;20218;-70
2023/12/15 03:03:01;;;;;;;4.80;3.80;;;;;;;;;;5035450;28;20237;-70
2023/12/15 03:05:26;;;;;;;7.30;5.37;;;;;;;;;;5032581;28;20234;-69
2023/12/15 03:07:51;;;;;;;8.30;6.10;;;;;;;;;;5032818;28;20322;-70
2023/12/15 03:10:17;;;;;;;9.13;6.20;;;;;;;;;;5019608;28;20236;-71
2023/12/15 03:12:42;;;;;;;7.27;5.53;;;;;;;;;;5029328;28;20229;-71
2023/12/15 03:15:07;;;;;;;7.40;5.00;;;;;;;;;;5034704;28;20214;-69
2023/12/15 03:17:33;;;;;;;5.97;4.30;;;;;;;;;;5032925;28;20737;-70
2023/12/15 03:19:58;;;;;;;6.13;4.60;;;;;;;;;;5030903;28;20217;-70
2023/12/15 03:22:23;;;;;;;6.33;4.27;;;;;;;;;;5037297;28;20221;-70
2023/12/15 03:24:49;;;;;;;7.23;4.70;;;;;;;;;;5018820;28;20226;-71
2023/12/15 03:27:15;;;;;;;6.40;4.43;;;;;;;;;;5040121;28;20234;-69
2023/12/15 03:29:40;;;;;;;6.90;4.70;;;;;;;;;;5032057;28;20731;-73
2023/12/15 03:32:06;;;;;;;7.50;4.90;;;;;;;;;;5031603;28;20322;-73
2023/12/15 03:34:31;;;;;;;6.63;4.60;;;;;;;;;;5039137;28;20217;-72
2023/12/15 03:36:56;;;;;;;7.33;5.17;;;;;;;;;;5030960;28;20238;-73
2023/12/15 03:39:22;;;;;;;7.80;5.07;;;;;;;;;;5014450;28;20220;-73
2023/12/15 03:41:47;;;;;;;8.63;5.23;;;;;;;;;;5033449;28;20225;-73
2023/12/15 03:44:12;;;;;;;8.90;5.70;;;;;;;;;;5031450;28;20213;-73
2023/12/15 03:46:38;;;;;;;9.40;5.90;;;;;;;;;;5034215;28;20222;-73
2023/12/15 03:49:03;;;;;;;9.73;6.17;;;;;;;;;;5030412;28;20228;-74
2023/12/15 03:51:28;;;;;;;10.27;6.23;;;;;;;;;;5030965;28;20706;-73
2023/12/15 03:53:54;;;;;;;10.57;6.50;;;;;;;;;;5019020;28;20720;-74
2023/12/15 03:56:23;;;;;;;10.63;6.40;;;;;;;;;;5031235;28;20746;-74
2023/12/15 03:58:48;;;;;;;11.43;7.33;;;;;;;;;;5034084;28;20606;-73
2023/12/15 04:01:14;;;;;;;11.77;7.20;;;;;;;;;;5034590;28;20213;-74
2023/12/15 04:03:39;;;;;;;11.83;7.73;;;;;;;;;;5036326;28;20225;-73
2023/12/15 04:06:08;;;;;;;13.17;8.23;;;;;;;;;;5015672;28;20225;-73
2023/12/15 04:08:33;;;;;;;12.83;8.03;;;;;;;;;;5015390;28;20307;-73
2023/12/15 04:10:59;;;;;;;12.33;7.90;;;;;;;;;;5021845;28;20798;-72
2023/12/15 04:13:24;;;;;;;13.30;7.73;;;;;;;;;;5035077;28;20857;-72
2023/12/15 04:15:49;;;;;;;12.13;7.57;;;;;;;;;;5035352;28;20228;-73
2023/12/15 04:18:15;;;;;;;13.80;8.20;;;;;;;;;;5031573;28;21196;-73
2023/12/15 04:20:41;;;;;;;14.67;8.30;;;;;;;;;;5029087;28;20248;-73
2023/12/15 04:23:06;;;;;;;16.33;9.10;;;;;;;;;;5030535;28;20305;-74
2023/12/15 04:25:31;;;;;;;14.13;8.97;;;;;;;;;;5029024;28;20715;-74
2023/12/15 04:27:57;;;;;;;16.70;9.40;;;;;;;;;;5028530;28;20806;-73
2023/12/15 04:30:22;;;;;;;17.37;10.17;;;;;;;;;;5026486;28;20229;-73
2023/12/15 04:32:47;;;;;;;18.53;11.33;;;;;;;;;;5024232;28;20618;-73
2023/12/15 04:35:13;;;;;;;19.27;11.87;;;;;;;;;;5040746;28;20249;-73
2023/12/15 04:37:38;;;;;;;17.00;10.77;;;;;;;;;;5017314;28;20226;-70
2023/12/15 04:40:04;;;;;;;18.00;11.00;;;;;;;;;;5022567;28;20228;-72
2023/12/15 04:42:29;;;;;;;18.93;10.93;;;;;;;;;;5030600;28;20222;-72
2023/12/15 04:44:55;;;;;;;17.93;10.13;;;;;;;;;;5019486;28;20229;-72
2023/12/15 04:47:20;;;;;;;17.17;10.80;;;;;;;;;;5030254;28;20291;-73
2023/12/15 04:49:45;;;;;;;17.30;11.23;;;;;;;;;;5016153;28;20225;-72
2023/12/15 04:52:10;;;;;;;18.07;11.20;;;;;;;;;;5031534;28;20230;-72
2023/12/15 04:54:36;;;;;;;15.87;10.23;;;;;;;;;;5013595;28;20221;-71
2023/12/15 04:57:01;;;;;;;18.30;10.80;;;;;;;;;;5039070;28;20229;-72
2023/12/15 04:59:26;;;;;;;17.73;10.53;;;;;;;;;;5028311;28;20218;-70
2023/12/15 05:01:51;;;;;;;18.23;11.20;;;;;;;;;;5031925;28;20642;-71
2023/12/15 05:04:17;;;;;;;18.83;11.13;;;;;;;;;;5030416;28;20252;-70
2023/12/15 05:06:42;;;;;;;16.13;9.90;;;;;;;;;;5018186;28;20218;-71
2023/12/15 05:09:09;;;;;;;13.70;8.70;;;;;;;;;;5032970;28;20253;-72
2023/12/15 05:11:34;;;;;;;13.00;8.33;;;;;;;;;;5014454;28;20231;-72
2023/12/15 05:14:00;;;;;;;15.63;8.37;;;;;;;;;;5040152;28;20220;-71
2023/12/15 05:16:25;;;;;;;12.20;8.43;;;;;;;;;;5030284;28;20240;-72
2023/12/15 05:18:50;;;;;;;14.43;7.97;;;;;;;;;;5030357;28;20795;-70
2023/12/15 05:21:15;;;;;;;13.57;8.50;;;;;;;;;;5017494;28;20251;-72
2023/12/15 05:23:41;;;;;;;12.90;8.30;;;;;;;;;;5029698;28;20587;-72
2023/12/15 05:26:06;;;;;;;13.60;8.50;;;;;;;;;;5026249;28;20319;-72
2023/12/15 05:28:31;;;;;;;12.07;7.73;;;;;;;;;;5029798;28;20237;-73
2023/12/15 05:30:57;;;;;;;13.27;7.87;;;;;;;;;;5042399;28;20249;-73
2023/12/15 05:33:22;;;;;;;12.93;8.03;;;;;;;;;;5035336;28;20229;-72
2023/12/15 05:35:47;;;;;;;13.73;8.00;;;;;;;;;;5031191;28;20616;-72
2023/12/15 05:38:12;;;;;;;12.40;8.00;;;;;;;;;;5031591;28;20304;-72
2023/12/15 05:40:38;;;;;;;11.20;7.47;;;;;;;;;;5031153;28;20225;-72
2023/12/15 05:43:03;;;;;;;14.73;7.67;;;;;;;;;;5015539;28;20954;-73
2023/12/15 05:45:29;;;;;;;11.17;6.97;;;;;;;;;;5038796;28;20242;-73
2023/12/15 05:47:55;;;;;;;13.00;7.53;;;;;;;;;;5013449;28;20237;-72
2023/12/15 05:50:20;;;;;;;11.83;7.20;;;;;;;;;;5029777;28;20287;-72
2023/12/15 05:52:45;;;;;;;13.90;7.70;;;;;;;;;;5023279;28;20218;-72
2023/12/15 05:55:10;;;;;;;11.53;7.50;;;;;;;;;;5030996;28;20218;-71
2023/12/15 05:57:36;;;;;;;11.17;6.90;;;;;;;;;;5032592;28;20220;-72
2023/12/15 06:00:02;;;;;;;10.50;6.97;;;;;;;;;;5033582;28;20216;-73
2023/12/15 06:02:27;;;;;;;10.80;6.83;;;;;;;;;;5031334;28;20231;-72
2023/12/15 06:04:53;;;;;;;11.33;7.10;;;;;;;;;;5030546;28;20246;-72
2023/12/15 06:07:19;;;;;;;12.00;6.90;;;;;;;;;;5014284;28;20699;-71
2023/12/15 06:09:45;;;;;;;12.93;7.13;;;;;;;;;;5028007;28;20715;-71
2023/12/15 06:12:10;;;;;;;13.67;7.80;;;;;;;;;;5028503;28;20252;-73
2023/12/15 06:14:36;;;;;;;10.90;7.17;;;;;;;;;;5021845;28;20293;-72
2023/12/15 06:17:05;;;;;;;11.00;6.93;;;;;;;;;;5016686;28;20936;-72
2023/12/15 06:19:31;;;;;;;12.37;7.50;;;;;;;;;;5032132;28;20214;-73
2023/12/15 06:21:56;;;;;;;12.50;7.30;;;;;;;;;;5017401;28;20228;-73
2023/12/15 06:24:21;;;;;;;13.77;8.07;;;;;;;;;;5030718;28;20225;-73
2023/12/15 06:26:46;;;;;;;12.30;7.90;;;;;;;;;;5036581;28;20717;-72
2023/12/15 06:29:12;;;;;;;14.27;8.20;;;;;;;;;;5025535;28;20245;-72
2023/12/15 06:31:43;;;;;;;15.13;8.27;;;;;;;;;;5034971;28;20229;-73
2023/12/15 06:34:09;;;;;;;14.10;8.20;;;;;;;;;;5025689;28;20417;-73
2023/12/15 06:36:35;;;;;;;13.97;8.67;;;;;;;;;;5018193;28;20237;-73
2023/12/15 06:39:00;;;;;;;15.93;9.23;;;;;;;;;;5048817;28;20213;-72
2023/12/15 06:41:25;;;;;;;15.40;9.30;;;;;;;;;;5020942;28;20218;-74
2023/12/15 06:43:51;;;;;;;14.50;8.77;;;;;;;;;;5015818;28;20283;-74
2023/12/15 06:46:16;;;;;;;16.90;9.03;;;;;;;;;;5032170;28;20249;-73
2023/12/15 06:48:41;;;;;;;16.00;9.13;;;;;;;;;;5019223;28;20243;-72
2023/12/15 06:51:06;;;;;;;15.37;9.00;;;;;;;;;;5040379;28;20222;-72
2023/12/15 06:53:32;;;;;;;14.60;8.90;;;;;;;;;;5016879;28;20242;-73
2023/12/15 06:55:58;;;;;;;15.43;9.20;;;;;;;;;;5042440;28;20248;-73
2023/12/15 06:58:24;;;;;;;16.37;9.57;;;;;;;;;;5033354;28;20214;-73
2023/12/15 07:00:49;;;;;;;16.80;9.20;;;;;;;;;;5017079;28;20659;-72
2023/12/15 07:03:14;;;;;;;16.60;9.73;;;;;;;;;;5033272;28;20222;-73
2023/12/15 07:05:40;;;;;;;16.77;9.93;;;;;;;;;;5035684;28;20299;-72
2023/12/15 07:08:05;;;;;;;17.33;10.40;;;;;;;;;;5031969;28;20264;-73
2023/12/15 07:10:30;;;;;;;18.13;9.97;;;;;;;;;;5032668;28;20272;-72
2023/12/15 07:12:56;;;;;;;17.40;10.30;;;;;;;;;;5030347;28;20672;-72
2023/12/15 07:15:21;;;;;;;18.70;10.60;;;;;;;;;;5033479;28;20206;-72
2023/12/15 07:17:46;;;;;;;19.27;10.43;;;;;;;;;;5020549;28;20221;-73
2023/12/15 07:20:11;;;;;;;19.33;10.43;;;;;;;;;;5031538;28;20226;-73
2023/12/15 07:22:37;;;;;;;20.33;10.50;;;;;;;;;;5035895;28;20847;-71
2023/12/15 07:25:02;;;;;;;19.73;10.60;;;;;;;;;;5028920;28;20213;-73
2023/12/15 07:27:28;;;;;;;19.00;10.83;;;;;;;;;;5033562;28;20222;-72
2023/12/15 07:29:53;;;;;;;20.77;11.13;;;;;;;;;;5031901;28;20249;-72
2023/12/15 07:32:18;;;;;;;19.40;11.13;;;;;;;;;;5034429;28;20279;-73
2023/12/15 07:34:44;;;;;;;23.13;11.30;;;;;;;;;;5032410;28;20217;-71
2023/12/15 07:37:09;;;;;;;21.30;11.27;;;;;;;;;;5040995;28;20341;-71
2023/12/15 07:39:34;;;;;;;22.53;11.60;;;;;;;;;;5033826;28;20217;-70
2023/12/15 07:41:59;;;;;;;18.23;11.00;;;;;;;;;;5034330;28;20249;-70
2023/12/15 07:44:25;;;;;;;20.57;11.20;;;;;;;;;;5032753;28;20210;-71
2023/12/15 07:46:53;;;;;;;20.50;12.10;;;;;;;;;;5030584;28;20317;-71
2023/12/15 07:49:19;;;;;;;19.97;11.47;;;;;;;;;;5030591;28;20238;-71
2023/12/15 07:51:45;;;;;;;20.67;11.40;;;;;;;;;;5033691;28;20283;-70
2023/12/15 07:54:10;;;;;;;22.23;11.40;;;;;;;;;;5029143;28;20226;-71
2023/12/15 07:56:36;;;;;;;23.03;11.60;;;;;;;;;;5015565;28;20225;-70
2023/12/15 07:59:01;;;;;;;26.03;12.63;;;;;;;;;;5039772;28;20300;-70
2023/12/15 08:01:26;;;;;;;20.37;11.90;;;;;;;;;;5030451;28;20319;-70
2023/12/15 08:03:52;;;;;;;23.10;11.47;;;;;;;;;;5027829;28;20229;-69
2023/12/15 08:06:17;;;;;;;22.30;12.57;;;;;;;;;;5030735;28;20320;-70
2023/12/15 08:08:43;;;;;;;22.17;12.63;;;;;;;;;;5032099;28;20669;-70
2023/12/15 08:11:09;;;;;;;20.77;12.20;;;;;;;;;;5032487;28;20305;-69
2023/12/15 08:13:35;;;;;;;23.60;12.77;;;;;;;;;;5031607;28;20225;-71
2023/12/15 08:16:00;;;;;;;23.97;13.70;;;;;;;;;;5033086;28;20279;-71
2023/12/15 08:18:26;;;;;;;23.10;12.47;;;;;;;;;;5014053;28;20217;-70
2023/12/15 08:20:51;;;;;;;23.90;13.03;;;;;;;;;;5030644;28;20225;-70
2023/12/15 08:23:17;;;;;;;22.13;12.90;;;;;;;;;;5030779;28;21144;-71
2023/12/15 08:25:42;;;;;;;21.53;12.93;;;;;;;;;;5030854;28;20374;-71
2023/12/15 08:28:10;;;;;;;24.80;13.50;;;;;;;;;;5033594;28;20242;-71
2023/12/15 08:30:35;;;;;;;22.40;13.17;;;;;;;;;;5013085;28;20222;-71
2023/12/15 08:33:01;;;;;;;23.47;13.23;;;;;;;;;;5032860;28;20229;-71
2023/12/15 08:35:26;;;;;;;22.50;12.77;;;;;;;;;;5039728;28;20237;-71
2023/12/15 08:37:52;;;;;;;23.70;13.73;;;;;;;;;;5028199;28;20302;-71
2023/12/15 08:40:17;;;;;;;23.50;13.80;;;;;;;;;;5029135;28;20218;-71
2023/12/15 08:42:42;;;;;;;25.90;13.27;;;;;;;;;;5023575;28;20258;-71
2023/12/15 08:45:09;;;;;;;24.23;13.33;;;;;;;;;;5030077;28;20210;-70
2023/12/15 08:47:34;;;;;;;25.63;13.50;;;;;;;;;;5016508;28;20737;-70
2023/12/15 08:50:00;;;;;;;23.17;13.67;;;;;;;;;;5033082;28;20309;-70
2023/12/15 08:52:25;;;;;;;22.10;12.90;;;;;;;;;;5028092;28;20229;-70
2023/12/15 08:54:50;;;;;;;25.83;12.53;;;;;;;;;;5026377;28;20218;-71
2023/12/15 08:57:16;;;;;;;26.80;12.47;;;;;;;;;;5014555;28;20665;-71
2023/12/15 08:59:42;;;;;;;24.33;12.73;;;;;;;;;;5029432;28;20233;-71
2023/12/15 09:02:08;;;;;;;22.70;12.67;;;;;;;;;;5015628;28;20264;-72
2023/12/15 09:04:34;;;;;;;23.53;12.53;;;;;;;;;;5036896;28;20233;-71
2023/12/15 09:06:59;;;;;;;25.03;12.63;;;;;;;;;;5030579;28;20240;-71
2023/12/15 09:09:24;;;;;;;23.10;12.77;;;;;;;;;;5028236;28;20788;-71
2023/12/15 09:11:50;;;;;;;23.57;12.77;;;;;;;;;;5017783;28;20234;-71
2023/12/15 09:14:16;;;;;;;23.80;11.90;;;;;;;;;;5015441;28;20246;-71
2023/12/15 09:16:42;;;;;;;23.77;12.70;;;;;;;;;;5030251;28;20251;-72
2023/12/15 09:19:08;;;;;;;24.00;12.67;;;;;;;;;;5033486;28;20776;-70
2023/12/15 09:21:33;;;;;;;27.93;13.80;;;;;;;;;;5016738;28;20218;-70
2023/12/15 09:23:58;;;;;;;32.73;14.80;;;;;;;;;;5032449;28;20602;-72
2023/12/15 09:26:24;;;;;;;27.77;14.37;;;;;;;;;;5032818;28;20217;-70
2023/12/15 09:28:49;;;;;;;29.13;14.60;;;;;;;;;;5027556;28;20280;-71
2023/12/15 09:31:15;;;;;;;27.53;15.03;;;;;;;;;;5029055;28;20309;-70
2023/12/15 09:33:40;;;;;;;33.40;16.63;;;;;;;;;;5029033;28;20279;-72
2023/12/15 09:36:06;;;;;;;29.80;16.97;;;;;;;;;;5013942;28;20217;-71
2023/12/15 09:38:31;;;;;;;25.87;14.50;;;;;;;;;;5012994;28;20214;-70
2023/12/15 09:40:56;;;;;;;25.87;14.53;;;;;;;;;;5028456;28;20310;-71
2023/12/15 09:43:22;;;;;;;25.70;14.60;;;;;;;;;;5015812;28;20225;-70
2023/12/15 09:45:47;;;;;;;29.17;16.03;;;;;;;;;;5017817;28;20217;-70
2023/12/15 09:48:12;;;;;;;28.97;16.77;;;;;;;;;;5016246;28;20243;-69
2023/12/15 09:50:38;;;;;;;23.90;13.80;;;;;;;;;;5032109;28;20290;-69
2023/12/15 09:53:03;;;;;;;25.53;14.40;;;;;;;;;;5031070;28;20240;-71
2023/12/15 09:55:30;;;;;;;24.37;13.97;;;;;;;;;;5035521;28;20301;-70
2023/12/15 09:57:55;;;;;;;26.47;14.37;;;;;;;;;;5037578;28;20221;-71
2023/12/15 10:00:20;;;;;;;26.20;14.40;;;;;;;;;;5031551;28;20233;-69
2023/12/15 10:02:46;;;;;;;24.93;13.13;;;;;;;;;;5031650;28;20221;-70
2023/12/15 10:05:11;;;;;;;26.43;13.70;;;;;;;;;;5030378;28;20233;-70
2023/12/15 10:07:37;;;;;;;24.27;13.97;;;;;;;;;;5032781;28;20226;-70
2023/12/15 10:10:02;;;;;;;27.60;14.20;;;;;;;;;;5033039;28;20319;-71
2023/12/15 10:12:30;;;;;;;22.27;12.83;;;;;;;;;;5021516;28;20222;-71
2023/12/15 10:14:56;;;;;;;25.63;13.93;;;;;;;;;;5031533;28;20228;-71
2023/12/15 10:17:21;;;;;;;25.67;13.40;;;;;;;;;;5036847;28;20226;-70
2023/12/15 10:19:46;;;;;;;26.97;13.70;;;;;;;;;;5034520;28;20266;-70
2023/12/15 10:22:12;;;;;;;28.03;14.30;;;;;;;;;;5018955;28;20252;-70
2023/12/15 10:24:37;;;;;;;25.73;13.80;;;;;;;;;;5037870;28;20766;-71
2023/12/15 10:27:03;;;;;;;26.90;14.23;;;;;;;;;;5036895;28;20221;-71
2023/12/15 10:29:29;;;;;;;25.97;14.63;;;;;;;;;;5021115;28;20230;-75
2023/12/15 10:31:54;;;;;;;26.27;14.00;;;;;;;;;;5015779;28;20252;-75
2023/12/15 10:34:26;;;;;;;26.63;14.23;;;;;;;;;;5019295;28;20222;-74
2023/12/15 10:36:51;;;;;;;27.87;15.07;;;;;;;;;;5026880;28;20302;-75
2023/12/15 10:39:19;;;;;;;26.00;14.53;;;;;;;;;;5036344;28;20652;-75
2023/12/15 10:41:45;;;;;;;24.83;13.33;;;;;;;;;;5032731;28;20230;-75
2023/12/15 10:44:13;;;;;;;29.10;13.77;;;;;;;;;;5033819;28;20231;-73
2023/12/15 10:46:42;;;;;;;26.57;13.33;;;;;;;;;;5032986;28;20253;-74
2023/12/15 10:49:08;;;;;;;24.17;12.33;;;;;;;;;;5015004;28;20243;-74
2023/12/15 10:51:33;;;;;;;23.57;12.47;;;;;;;;;;5017649;28;20249;-74
2023/12/15 10:53:58;;;;;;;22.13;11.90;;;;;;;;;;5020541;28;20222;-73
2023/12/15 10:56:26;;;;;;;22.10;11.40;;;;;;;;;;5049700;28;20286;-72
2023/12/15 10:58:51;;;;;;;23.10;12.20;;;;;;;;;;5021405;28;20214;-70
2023/12/15 11:01:16;;;;;;;23.73;12.80;;;;;;;;;;5032668;28;20229;-70
2023/12/15 11:03:42;;;;;;;25.43;13.10;;;;;;;;;;5032744;28;20217;-69
2023/12/15 11:06:07;;;;;;;26.77;13.87;;;;;;;;;;5033420;28;20269;-74
2023/12/15 11:08:32;;;;;;;24.00;12.97;;;;;;;;;;5032334;28;20763;-75
2023/12/15 11:10:58;;;;;;;25.90;13.07;;;;;;;;;;5018174;28;20225;-74
2023/12/15 11:13:42;;;;;;;24.57;12.93;;;;;;;;;;5034452;28;20308;-74
2023/12/15 11:16:08;;;;;;;29.47;14.50;;;;;;;;;;5034382;28;20225;-70
2023/12/15 11:18:34;;;;;;;25.90;13.60;;;;;;;;;;5029300;28;20283;-70
2023/12/15 11:21:00;;;;;;;18.40;9.90;;;;;;;;;;5031309;28;20229;-70
2023/12/15 11:23:25;;;;;;;18.23;9.73;;;;;;;;;;5029617;28;20217;-71
2023/12/15 11:25:50;;;;;;;16.90;9.23;;;;;;;;;;5024632;28;20921;-74
2023/12/15 11:28:16;;;;;;;16.67;9.20;;;;;;;;;;5033492;28;20245;-73
2023/12/15 11:30:42;;;;;;;15.47;8.90;;;;;;;;;;5032998;28;20979;-75
2023/12/15 11:33:19;;;;;;;15.50;8.50;;;;;;;;;;5018483;28;20676;-75
2023/12/15 11:35:45;;;;;;;15.87;9.20;;;;;;;;;;5032902;28;21022;-74
2023/12/15 11:38:10;;;;;;;18.73;9.83;;;;;;;;;;5020419;28;20283;-75
2023/12/15 11:40:35;;;;;;;18.83;10.10;;;;;;;;;;5030611;28;20217;-73
2023/12/15 11:43:02;;;;;;;22.10;11.57;;;;;;;;;;5024090;28;20349;-74
2023/12/15 11:45:29;;;;;;;22.60;11.60;;;;;;;;;;5028702;28;20214;-75
2023/12/15 11:47:54;;;;;;;20.67;11.17;;;;;;;;;;5032256;28;20234;-75
2023/12/15 11:50:21;;;;;;;22.90;11.43;;;;;;;;;;5035433;28;20217;-74
2023/12/15 11:52:47;;;;;;;20.93;11.20;;;;;;;;;;5033780;28;20230;-76
2023/12/15 11:55:12;;;;;;;20.60;10.47;;;;;;;;;;5032503;28;20237;-75
2023/12/15 11:57:37;;;;;;;15.37;8.43;;;;;;;;;;5021322;28;20218;-70
2023/12/15 12:00:03;;;;;;;13.07;6.67;;;;;;;;;;5032069;28;21320;-71
2023/12/15 12:02:28;;;;;;;13.70;7.13;;;;;;;;;;5020293;28;20229;-71
2023/12/15 12:04:56;;;;;;;14.87;7.10;;;;;;;;;;5016400;28;20724;-70
2023/12/15 12:07:22;;;;;;;15.93;8.80;;;;;;;;;;5031019;28;20236;-69
2023/12/15 12:09:47;;;;;;;14.17;8.03;;;;;;;;;;5030780;28;20233;-70
2023/12/15 12:12:13;;;;;;;16.07;8.80;;;;;;;;;;5016471;28;20295;-69
2023/12/15 12:14:42;;;;;;;18.27;9.20;;;;;;;;;;5033134;28;20226;-72
2023/12/15 12:17:11;;;;;;;15.40;8.67;;;;;;;;;;5033403;28;20226;-70
2023/12/15 12:19:40;;;;;;;17.83;9.50;;;;;;;;;;5031476;28;20228;-70
2023/12/15 12:22:08;;;;;;;18.73;9.50;;;;;;;;;;5029821;28;20284;-71
2023/12/15 12:24:34;;;;;;;16.73;8.70;;;;;;;;;;5032654;28;20683;-70
2023/12/15 12:26:59;;;;;;;18.10;8.80;;;;;;;;;;5027713;28;20232;-71
2023/12/15 12:29:24;;;;;;;15.73;7.63;;;;;;;;;;5024141;28;20785;-71
2023/12/15 12:31:49;;;;;;;9.70;5.50;;;;;;;;;;5032564;28;20218;-71
2023/12/15 12:34:15;;;;;;;17.13;7.47;;;;;;;;;;5030674;28;20233;-70
2023/12/15 12:36:40;;;;;;;10.30;5.40;;;;;;;;;;5036228;28;20308;-75
2023/12/15 12:39:06;;;;;;;10.40;5.57;;;;;;;;;;5035178;28;20225;-74
2023/12/15 12:41:31;;;;;;;8.47;5.07;;;;;;;;;;5035337;28;20300;-75
2023/12/15 12:43:57;;;;;;;10.57;5.57;;;;;;;;;;5021342;28;20431;-75
2023/12/15 12:46:22;;;;;;;7.77;4.70;;;;;;;;;;5032481;28;20600;-71
2023/12/15 12:48:47;;;;;;;7.73;4.17;;;;;;;;;;5018328;28;20257;-71
2023/12/15 12:51:13;;;;;;;6.60;3.67;;;;;;;;;;5031079;28;20222;-70
2023/12/15 12:53:38;;;;;;;4.33;2.80;;;;;;;;;;5027641;28;20221;-70
2023/12/15 12:56:04;;;;;;;5.73;2.53;;;;;;;;;;5028229;28;20241;-75
2023/12/15 12:58:30;;;;;;;5.13;2.60;;;;;;;;;;5015866;28;20312;-76
2023/12/15 13:00:55;;;;;;;2.30;1.80;;;;;;;;;;5039920;28;20379;-75
2023/12/15 13:03:21;;;;;;;3.43;2.30;;;;;;;;;;5032862;28;20272;-75
2023/12/15 13:05:46;;;;;;;3.10;2.10;;;;;;;;;;5012797;28;20232;-74
2023/12/15 13:08:11;;;;;;;3.40;2.20;;;;;;;;;;5033005;28;21046;-75
2023/12/15 13:10:37;;;;;;;4.00;2.47;;;;;;;;;;5029927;28;20283;-75
2023/12/15 13:13:02;;;;;;;4.73;2.67;;;;;;;;;;5033188;28;20225;-75
2023/12/15 13:15:27;;;;;;;3.20;2.30;;;;;;;;;;5029063;28;20250;-75
2023/12/15 13:17:55;;;;;;;3.83;2.57;;;;;;;;;;5032544;28;20234;-73
2023/12/15 13:20:22;;;;;;;4.93;2.30;;;;;;;;;;5028478;28;20222;-75
2023/12/15 13:22:47;;;;;;;4.03;2.40;;;;;;;;;;5013947;28;20222;-75
2023/12/15 13:25:13;;;;;;;4.83;2.50;;;;;;;;;;5027972;28;20237;-71
2023/12/15 13:27:38;;;;;;;5.27;2.50;;;;;;;;;;5033117;28;20304;-75
2023/12/15 13:30:04;;;;;;;4.57;2.70;;;;;;;;;;5016713;28;20222;-75
2023/12/15 13:32:29;;;;;;;4.87;2.70;;;;;;;;;;5017883;28;20233;-75
2023/12/15 13:34:55;;;;;;;6.57;3.23;;;;;;;;;;5013546;28;20308;-75
2023/12/15 13:37:20;;;;;;;7.67;3.20;;;;;;;;;;5030791;28;21017;-74
2023/12/15 13:39:45;;;;;;;5.33;3.07;;;;;;;;;;5028879;28;21008;-76
2023/12/15 13:42:12;;;;;;;4.57;2.70;;;;;;;;;;5015739;28;20237;-75
2023/12/15 13:44:37;;;;;;;4.80;2.70;;;;;;;;;;5032071;28;20718;-76
2023/12/15 13:47:03;;;;;;;4.97;2.90;;;;;;;;;;5026496;28;20225;-75
2023/12/15 13:49:28;;;;;;;5.77;2.93;;;;;;;;;;5029321;28;20240;-76
2023/12/15 13:51:54;;;;;;;6.43;3.10;;;;;;;;;;5030310;28;20234;-75
2023/12/15 13:54:19;;;;;;;5.70;3.30;;;;;;;;;;5028886;28;20221;-75
2023/12/15 13:56:44;;;;;;;5.83;2.80;;;;;;;;;;5034603;28;20222;-75
2023/12/15 13:59:10;;;;;;;5.43;2.80;;;;;;;;;;5015310;28;20218;-76
2023/12/15 14:01:37;;;;;;;4.40;2.90;;;;;;;;;;5021588;28;20315;-75
2023/12/15 14:04:03;;;;;;;4.13;2.80;;;;;;;;;;5034526;28;20220;-75
2023/12/15 14:06:28;;;;;;;5.50;2.90;;;;;;;;;;5030108;28;20236;-75
2023/12/15 14:08:56;;;;;;;5.60;2.90;;;;;;;;;;5021272;28;20234;-75
2023/12/15 14:11:21;;;;;;;4.57;2.90;;;;;;;;;;5028696;28;20233;-75
2023/12/15 14:13:47;;;;;;;6.13;2.93;;;;;;;;;;5030986;28;20225;-75
2023/12/15 14:16:12;;;;;;;3.90;2.30;;;;;;;;;;5031113;28;20327;-75
2023/12/15 14:18:38;;;;;;;3.30;2.30;;;;;;;;;;5022714;28;20786;-76
2023/12/15 14:21:04;;;;;;;4.23;2.50;;;;;;;;;;5026413;28;20754;-75